Time;durP1;ratioP1;P1;durP2;ratioP2;P2;SDS_P1;SDS_P2;PMS_P1;PMS_P2;Temp;Humidity;BMP_temperature;BMP_pressure;BME280_temperature;BME280_humidity;BME280_pressure;Samples;Min_cycle;Max_cycle;Signal;HPM_P1;HPM_P2
2021/01/29 00:00:11;;;;;;;2.10;0.80;;;9.90;99.90;;;;;;4961973;29;20063;-93
2021/01/29 00:02:38;;;;;;;1.48;0.70;;;9.90;99.90;;;;;;4945116;29;20083;-91
2021/01/29 00:05:06;;;;;;;1.45;0.70;;;9.90;99.90;;;;;;4938220;29;20130;-91
2021/01/29 00:07:32;;;;;;;2.00;0.75;;;9.90;99.90;;;;;;4937322;29;20486;-94
2021/01/29 00:09:59;;;;;;;2.17;0.80;;;9.90;99.90;;;;;;4944720;29;20102;-93
2021/01/29 00:12:26;;;;;;;1.55;0.65;;;10.00;99.90;;;;;;4928239;29;20391;-92
2021/01/29 00:14:53;;;;;;;2.10;0.70;;;10.00;99.90;;;;;;4944428;29;20137;-94
2021/01/29 00:17:21;;;;;;;2.13;0.73;;;10.00;99.90;;;;;;4947727;29;20055;-93
2021/01/29 00:19:48;;;;;;;2.30;0.80;;;10.00;99.90;;;;;;4950036;29;20130;-93
2021/01/29 00:22:15;;;;;;;1.88;0.80;;;10.00;99.90;;;;;;4947169;29;20682;-93
2021/01/29 00:24:41;;;;;;;2.05;0.70;;;10.00;99.90;;;;;;4949719;29;20090;-92
2021/01/29 00:27:08;;;;;;;3.55;0.70;;;10.00;99.90;;;;;;4947885;29;20053;-91
2021/01/29 00:29:34;;;;;;;1.85;0.65;;;10.20;99.90;;;;;;4946847;29;20055;-91
2021/01/29 00:32:02;;;;;;;2.28;0.80;;;10.10;99.90;;;;;;4932518;29;20054;-92
2021/01/29 00:34:29;;;;;;;2.13;0.88;;;10.10;99.90;;;;;;4938822;29;20067;-91
2021/01/29 00:36:56;;;;;;;1.85;1.02;;;10.10;99.90;;;;;;4952942;29;20470;-92
2021/01/29 00:39:24;;;;;;;2.72;0.90;;;10.10;99.90;;;;;;4937121;29;20080;-92
2021/01/29 00:41:51;;;;;;;2.65;0.93;;;10.10;99.90;;;;;;4920584;29;20091;-94
2021/01/29 00:44:18;;;;;;;2.53;0.82;;;10.20;99.90;;;;;;4932582;29;20047;-94
2021/01/29 00:46:45;;;;;;;1.95;0.77;;;10.10;99.90;;;;;;4918376;29;20047;-92
2021/01/29 00:49:12;;;;;;;2.78;0.85;;;10.10;99.90;;;;;;4952811;29;20481;-92
2021/01/29 00:51:39;;;;;;;2.50;0.90;;;10.20;99.90;;;;;;4924448;29;20457;-90
2021/01/29 00:54:06;;;;;;;1.48;0.70;;;10.20;99.90;;;;;;4930828;29;20466;-90
2021/01/29 00:56:32;;;;;;;2.22;0.88;;;10.00;99.90;;;;;;4955137;29;20079;-91
2021/01/29 00:58:59;;;;;;;2.90;0.80;;;10.00;99.90;;;;;;4965463;29;20118;-91
2021/01/29 01:01:26;;;;;;;2.13;0.90;;;10.20;99.90;;;;;;4962716;28;20107;-93
2021/01/29 01:03:52;;;;;;;1.60;0.70;;;10.10;99.90;;;;;;4954511;28;20058;-91
2021/01/29 01:06:19;;;;;;;1.77;0.52;;;10.10;99.90;;;;;;4968571;29;20138;-90
2021/01/29 01:08:46;;;;;;;1.98;0.63;;;10.10;99.90;;;;;;4942114;29;20124;-92
2021/01/29 01:11:13;;;;;;;3.03;0.70;;;10.20;99.90;;;;;;4942351;29;20115;-90
2021/01/29 01:13:40;;;;;;;1.27;0.50;;;10.10;99.90;;;;;;4945097;29;20058;-89
2021/01/29 01:16:07;;;;;;;1.73;0.70;;;10.10;99.90;;;;;;4931209;29;20166;-92
2021/01/29 01:18:33;;;;;;;2.35;0.70;;;10.20;99.90;;;;;;4934761;29;20051;-94
2021/01/29 01:21:00;;;;;;;1.30;0.50;;;10.20;99.90;;;;;;4953214;29;20111;-92
2021/01/29 01:23:27;;;;;;;2.42;0.70;;;10.20;99.90;;;;;;4951061;29;20138;-92
2021/01/29 01:25:54;;;;;;;1.58;0.63;;;10.20;99.90;;;;;;4959974;29;20070;-91
2021/01/29 01:28:21;;;;;;;1.55;0.60;;;10.20;99.90;;;;;;4970858;29;20052;-92
2021/01/29 01:30:48;;;;;;;1.70;0.60;;;10.30;99.90;;;;;;4958674;29;20051;-93
2021/01/29 01:33:15;;;;;;;2.53;0.65;;;10.40;99.90;;;;;;4955945;29;20059;-92
2021/01/29 01:35:42;;;;;;;2.35;0.80;;;10.30;99.90;;;;;;4951353;29;20059;-90
2021/01/29 01:38:08;;;;;;;2.35;0.77;;;10.30;99.90;;;;;;4954768;29;20051;-91
2021/01/29 01:40:39;;;;;;;2.50;0.70;;;10.30;99.90;;;;;;4925406;29;20154;-92
2021/01/29 01:43:07;;;;;;;1.70;0.70;;;10.40;99.90;;;;;;4947310;29;20168;-91
2021/01/29 01:46:03;;;;;;;2.83;0.77;;;10.30;99.90;;;;;;4947478;29;20079;-92
2021/01/29 01:48:51;;;;;;;1.38;0.50;;;10.40;99.90;;;;;;4951368;29;20067;-89
2021/01/29 01:51:39;;;;;;;2.22;0.70;;;10.40;99.90;;;;;;4929429;29;20400;-91
2021/01/29 01:54:14;;;;;;;0.80;0.50;;;10.50;99.90;;;;;;4943945;29;20301;-91
2021/01/29 01:56:46;;;;;;;1.85;0.50;;;10.40;99.90;;;;;;4941303;29;20554;-93
2021/01/29 01:59:18;;;;;;;2.10;0.60;;;10.30;99.90;;;;;;4970878;29;20065;-90
2021/01/29 02:01:46;;;;;;;1.20;0.50;;;10.40;99.90;;;;;;4971839;28;20083;-90
2021/01/29 02:04:16;;;;;;;1.33;0.50;;;10.30;99.90;;;;;;4954347;29;20071;-90
2021/01/29 02:06:55;;;;;;;1.15;0.47;;;10.40;99.90;;;;;;4932488;29;20058;-91
2021/01/29 02:09:24;;;;;;;1.30;0.60;;;10.40;99.90;;;;;;4952622;29;20055;-92
2021/01/29 02:11:52;;;;;;;2.15;0.80;;;10.40;99.90;;;;;;4950790;29;20052;-92
2021/01/29 02:14:20;;;;;;;1.70;0.60;;;10.50;99.90;;;;;;4949297;29;20127;-92
2021/01/29 02:16:55;;;;;;;2.10;0.68;;;10.50;99.90;;;;;;4929703;29;20086;-93
2021/01/29 02:20:08;;;;;;;1.35;0.60;;;10.40;99.90;;;;;;4957408;29;20612;-93
2021/01/29 02:23:41;;;;;;;1.90;0.60;;;10.50;99.90;;;;;;4929271;29;20139;-92
2021/01/29 02:26:56;;;;;;;1.90;0.90;;;10.40;99.90;;;;;;4894521;29;20136;-92
2021/01/29 02:30:01;;;;;;;0.70;0.40;;;10.40;99.90;;;;;;4888245;29;20148;-91
2021/01/29 02:33:38;;;;;;;0.90;0.40;;;10.40;99.90;;;;;;4941137;29;20106;-93
2021/01/29 02:36:45;;;;;;;0.98;0.50;;;10.50;99.90;;;;;;4961893;28;20076;-92
2021/01/29 02:39:55;;;;;;;1.98;0.73;;;10.50;99.90;;;;;;4973884;29;20051;-92
2021/01/29 02:42:59;;;;;;;1.08;0.45;;;10.50;99.90;;;;;;4961788;28;20062;-91
2021/01/29 02:45:28;;;;;;;;;;;10.60;99.90;;;;;;4979260;28;20059;-91
2021/01/29 02:48:06;;;;;;;0.98;0.40;;;10.60;99.90;;;;;;4973245;28;19938;-90
2021/01/29 02:50:44;;;;;;;1.90;0.52;;;10.80;99.90;;;;;;4971755;28;20062;-92
2021/01/29 02:53:32;;;;;;;1.88;0.70;;;10.60;99.90;;;;;;4979202;28;20059;-91
2021/01/29 02:56:17;;;;;;;1.60;0.60;;;10.60;99.90;;;;;;4963355;29;20114;-92
2021/01/29 02:58:52;;;;;;;1.67;0.55;;;10.50;99.90;;;;;;4949525;29;20059;-92
2021/01/29 03:01:24;;;;;;;1.40;0.50;;;10.50;99.90;;;;;;4978905;28;20053;-92
2021/01/29 03:03:59;;;;;;;1.02;0.50;;;10.50;99.90;;;;;;4942298;29;20102;-92
2021/01/29 03:06:33;;;;;;;2.20;0.50;;;10.40;99.90;;;;;;4952925;28;20106;-91
2021/01/29 03:09:07;;;;;;;0.50;0.30;;;10.30;99.90;;;;;;4944804;29;20056;-91
2021/01/29 03:11:46;;;;;;;2.00;0.43;;;10.30;99.90;;;;;;4957848;29;20051;-91
2021/01/29 03:14:19;;;;;;;2.72;0.45;;;10.30;99.90;;;;;;4977436;29;20319;-90
2021/01/29 03:16:51;;;;;;;1.27;0.40;;;10.20;99.90;;;;;;4943568;29;20079;-90
2021/01/29 03:19:27;;;;;;;1.90;0.85;;;10.20;99.90;;;;;;4966160;29;20070;-91
2021/01/29 03:21:59;;;;;;;1.55;0.38;;;10.20;99.90;;;;;;4960328;29;20055;-90
2021/01/29 03:24:32;;;;;;;0.95;0.30;;;10.30;99.90;;;;;;4975831;28;20105;-92
2021/01/29 03:27:06;;;;;;;1.42;0.32;;;10.30;99.90;;;;;;4972542;29;20043;-93
2021/01/29 03:29:43;;;;;;;1.63;0.32;;;10.30;99.90;;;;;;4955638;29;20078;-90
2021/01/29 03:32:13;;;;;;;2.50;0.30;;;10.30;99.90;;;;;;4974762;29;20054;-91
2021/01/29 03:34:47;;;;;;;0.80;0.30;;;10.20;99.90;;;;;;4963851;29;20074;-92
2021/01/29 03:37:23;;;;;;;1.08;0.68;;;10.30;99.90;;;;;;4965873;29;20406;-90
2021/01/29 03:39:51;;;;;;;1.13;0.20;;;10.30;99.90;;;;;;4966493;29;20075;-93
2021/01/29 03:42:33;;;;;;;0.75;0.20;;;10.40;99.90;;;;;;4936367;29;20083;-92
2021/01/29 03:45:14;;;;;;;0.80;0.22;;;10.30;99.90;;;;;;4953991;29;20047;-91
2021/01/29 03:47:54;;;;;;;0.55;0.20;;;10.20;99.90;;;;;;4949609;28;20138;-92
2021/01/29 03:50:34;;;;;;;1.20;0.30;;;10.30;99.90;;;;;;4944423;29;20138;-91
2021/01/29 03:53:22;;;;;;;0.35;0.20;;;10.30;99.90;;;;;;4933040;29;20075;-93
2021/01/29 03:56:03;;;;;;;0.38;0.20;;;10.20;99.90;;;;;;4951862;29;20082;-88
2021/01/29 03:58:39;;;;;;;0.47;0.20;;;10.20;99.90;;;;;;4954796;29;20060;-90
2021/01/29 04:01:17;;;;;;;0.57;0.28;;;10.20;99.90;;;;;;4946984;29;20052;-92
2021/01/29 04:03:51;;;;;;;0.57;0.20;;;10.00;99.90;;;;;;4949445;29;20058;-92
2021/01/29 04:06:23;;;;;;;0.50;0.20;;;10.00;99.90;;;;;;4932050;29;20504;-91
2021/01/29 04:08:56;;;;;;;1.00;0.30;;;9.90;99.90;;;;;;4955053;29;20548;-90
2021/01/29 04:11:32;;;;;;;0.73;0.20;;;9.80;99.90;;;;;;4922992;29;20047;-89
2021/01/29 04:14:06;;;;;;;1.45;0.30;;;9.80;99.90;;;;;;4941452;29;20166;-89
2021/01/29 04:16:36;;;;;;;0.63;0.20;;;9.80;99.90;;;;;;4940325;29;20081;-91
2021/01/29 04:19:09;;;;;;;0.88;0.30;;;9.80;99.90;;;;;;4948903;29;20142;-91
2021/01/29 04:21:42;;;;;;;1.23;0.40;;;9.80;99.90;;;;;;4943296;29;20134;-92
2021/01/29 04:24:15;;;;;;;0.65;0.30;;;9.80;99.90;;;;;;4967356;28;20052;-91
2021/01/29 04:26:49;;;;;;;1.30;0.35;;;9.80;99.90;;;;;;4970861;29;20042;-91
2021/01/29 04:29:22;;;;;;;1.90;0.35;;;9.80;99.90;;;;;;4976066;28;20047;-90
2021/01/29 04:31:52;;;;;;;0.88;0.30;;;9.80;99.90;;;;;;4957738;29;20174;-87
2021/01/29 04:34:22;;;;;;;1.02;0.30;;;9.90;99.90;;;;;;4964241;29;20134;-87
2021/01/29 04:36:53;;;;;;;1.02;0.30;;;9.80;99.90;;;;;;4966755;28;20048;-91
2021/01/29 04:39:26;;;;;;;1.80;0.50;;;9.80;99.90;;;;;;4969382;28;20145;-92
2021/01/29 04:42:08;;;;;;;1.38;0.38;;;9.80;99.90;;;;;;4961420;28;20071;-89
2021/01/29 04:44:56;;;;;;;1.25;0.30;;;9.80;99.90;;;;;;4939486;29;20494;-91
2021/01/29 04:47:28;;;;;;;1.42;0.50;;;9.90;99.90;;;;;;4966539;29;20055;-89
2021/01/29 04:50:17;;;;;;;1.60;0.30;;;9.80;99.90;;;;;;4962770;29;20079;-90
2021/01/29 04:53:19;;;;;;;1.00;0.30;;;9.80;99.90;;;;;;4958062;29;20108;-92
2021/01/29 04:56:20;;;;;;;0.38;0.20;;;9.80;99.90;;;;;;4957798;28;20048;-90
2021/01/29 04:59:34;;;;;;;0.60;0.20;;;9.80;99.90;;;;;;4956691;29;20047;-89
2021/01/29 05:02:52;;;;;;;0.22;0.10;;;9.80;99.90;;;;;;4945476;29;20051;-90
2021/01/29 05:05:47;;;;;;;0.73;0.20;;;9.70;99.90;;;;;;4939371;29;20205;-90
2021/01/29 05:08:47;;;;;;;0.30;0.15;;;9.80;99.90;;;;;;4950211;29;20055;-90
2021/01/29 05:11:51;;;;;;;0.63;0.10;;;9.80;99.90;;;;;;4956865;29;20086;-86
2021/01/29 05:14:47;;;;;;;0.32;0.10;;;9.70;99.90;;;;;;4923635;29;20075;-91
2021/01/29 05:18:00;;;;;;;0.55;0.10;;;9.70;99.90;;;;;;4944394;29;20112;-86
2021/01/29 05:20:48;;;;;;;0.82;0.20;;;9.70;99.90;;;;;;4961501;29;20075;-84
2021/01/29 05:23:49;;;;;;;0.60;0.20;;;9.80;99.90;;;;;;4943184;29;20150;-85
2021/01/29 05:26:52;;;;;;;0.20;0.10;;;9.80;99.90;;;;;;4961432;29;20111;-90
2021/01/29 05:29:32;;;;;;;0.32;0.13;;;9.80;99.90;;;;;;4938625;29;20119;-88
2021/01/29 05:32:26;;;;;;;0.43;0.10;;;9.90;99.90;;;;;;4948243;29;20142;-90
2021/01/29 05:35:09;;;;;;;0.32;0.10;;;10.00;99.90;;;;;;4945154;29;20144;-92
2021/01/29 05:38:24;;;;;;;0.30;0.10;;;9.90;99.90;;;;;;4943499;29;20079;-90
2021/01/29 05:41:40;;;;;;;0.52;0.20;;;10.00;99.90;;;;;;4940350;29;20142;-91
2021/01/29 05:44:54;;;;;;;0.35;0.10;;;10.00;99.90;;;;;;4871825;29;20470;-90
2021/01/29 05:48:15;;;;;;;0.65;0.20;;;9.90;99.90;;;;;;4905658;29;20134;-89
2021/01/29 05:51:16;;;;;;;0.40;0.20;;;9.90;99.90;;;;;;4936192;29;20096;-90
2021/01/29 05:54:35;;;;;;;0.22;0.10;;;10.00;99.90;;;;;;4933509;29;20055;-90
2021/01/29 05:58:02;;;;;;;0.35;0.13;;;9.90;99.90;;;;;;4936320;29;20553;-89
2021/01/29 06:01:01;;;;;;;0.20;0.00;;;10.00;99.90;;;;;;4893832;29;20083;-91
2021/01/29 06:03:46;;;;;;;0.57;0.20;;;10.00;99.90;;;;;;4936259;29;20061;-91
2021/01/29 06:07:05;;;;;;;0.30;0.10;;;10.00;99.90;;;;;;4936259;29;20398;-90
2021/01/29 06:09:58;;;;;;;0.57;0.10;;;10.10;99.90;;;;;;4904199;29;20130;-90
2021/01/29 06:12:54;;;;;;;0.22;0.13;;;10.00;99.90;;;;;;4936087;29;20134;-90
2021/01/29 06:15:50;;;;;;;1.00;0.20;;;10.00;99.90;;;;;;4903667;29;20055;-91
2021/01/29 06:19:07;;;;;;;0.52;0.20;;;10.00;99.90;;;;;;4935793;29;20059;-89
2021/01/29 06:22:09;;;;;;;1.02;0.20;;;9.90;99.90;;;;;;4920075;29;20052;-90
2021/01/29 06:25:23;;;;;;;0.50;0.20;;;9.90;99.90;;;;;;4934282;29;20609;-88
2021/01/29 06:28:30;;;;;;;1.70;0.30;;;9.90;99.90;;;;;;4919092;29;20056;-91
2021/01/29 06:31:26;;;;;;;1.65;0.40;;;9.90;99.90;;;;;;4918402;29;20062;-90
2021/01/29 06:34:22;;;;;;;1.00;0.20;;;9.90;99.90;;;;;;4919453;29;20056;-90
2021/01/29 06:37:04;;;;;;;1.67;0.30;;;9.80;99.90;;;;;;4918757;29;20134;-91
2021/01/29 06:39:45;;;;;;;1.25;0.40;;;9.60;99.90;;;;;;4935172;29;20052;-89
2021/01/29 06:42:55;;;;;;;2.08;0.60;;;9.60;99.90;;;;;;4918156;29;20498;-90
2021/01/29 06:45:50;;;;;;;1.83;0.50;;;9.50;99.90;;;;;;4875294;29;20055;-90
2021/01/29 06:48:47;;;;;;;1.45;0.30;;;9.40;99.90;;;;;;4924865;29;20047;-90
2021/01/29 06:52:04;;;;;;;2.25;0.45;;;9.20;99.90;;;;;;4942690;29;20079;-90
2021/01/29 06:55:29;;;;;;;0.98;0.30;;;9.20;99.90;;;;;;4936120;29;20066;-90
2021/01/29 06:58:25;;;;;;;1.38;0.40;;;9.30;99.90;;;;;;4935077;29;20505;-90
2021/01/29 07:01:22;;;;;;;1.08;0.35;;;9.20;99.90;;;;;;4935839;29;20065;-90
2021/01/29 07:04:36;;;;;;;1.55;0.50;;;9.30;99.90;;;;;;4935158;29;20142;-89
2021/01/29 07:07:12;;;;;;;1.17;0.40;;;9.30;99.90;;;;;;4921050;29;20446;-90
2021/01/29 07:10:11;;;;;;;0.68;0.30;;;9.30;99.90;;;;;;4952894;29;20071;-88
2021/01/29 07:13:04;;;;;;;2.42;0.50;;;9.30;99.90;;;;;;4915857;29;20091;-91
2021/01/29 07:15:45;;;;;;;1.25;0.30;;;9.20;99.90;;;;;;4935300;29;20052;-90
2021/01/29 07:18:50;;;;;;;1.55;0.40;;;9.30;99.90;;;;;;4937441;29;20075;-90
2021/01/29 07:21:37;;;;;;;1.88;0.30;;;9.20;99.90;;;;;;4936392;29;20138;-88
2021/01/29 07:24:24;;;;;;;1.42;0.30;;;9.30;99.90;;;;;;4938183;29;20090;-89
2021/01/29 07:27:07;;;;;;;1.63;0.30;;;9.30;99.90;;;;;;4938547;29;20158;-89
2021/01/29 07:29:52;;;;;;;0.45;0.30;;;9.40;99.90;;;;;;4937797;29;20070;-91
2021/01/29 07:32:29;;;;;;;1.27;0.40;;;9.40;99.90;;;;;;4938164;29;20142;-88
2021/01/29 07:35:05;;;;;;;0.68;0.30;;;9.50;99.90;;;;;;4945792;29;20111;-90
2021/01/29 07:38:06;;;;;;;1.52;0.40;;;9.40;99.90;;;;;;4930624;29;20068;-90
2021/01/29 07:41:12;;;;;;;1.88;0.50;;;9.40;99.90;;;;;;4928576;29;20541;-89
2021/01/29 07:43:51;;;;;;;1.40;0.40;;;9.50;99.90;;;;;;4941267;29;20056;-90
2021/01/29 07:46:51;;;;;;;1.88;0.50;;;9.50;99.90;;;;;;4941657;29;20137;-91
2021/01/29 07:49:49;;;;;;;1.55;0.30;;;9.60;99.90;;;;;;4909981;29;20138;-90
2021/01/29 07:52:44;;;;;;;0.82;0.40;;;9.60;99.90;;;;;;4946400;29;20055;-91
2021/01/29 07:55:20;;;;;;;0.95;0.30;;;9.60;99.90;;;;;;4939736;29;20438;-90
2021/01/29 07:58:34;;;;;;;1.08;0.40;;;9.60;99.90;;;;;;4945202;29;20147;-88
2021/01/29 08:01:23;;;;;;;1.08;0.40;;;9.60;99.90;;;;;;4853308;29;20133;-88
2021/01/29 08:04:16;;;;;;;0.98;0.30;;;9.60;99.90;;;;;;4867364;29;20120;-90
2021/01/29 08:06:52;;;;;;;1.25;0.47;;;9.50;99.90;;;;;;4921905;29;20056;-90
2021/01/29 08:09:27;;;;;;;1.13;0.40;;;9.50;99.90;;;;;;4920646;29;20136;-90
2021/01/29 08:11:58;;;;;;;0.63;0.20;;;9.50;99.90;;;;;;4937419;29;20051;-89
2021/01/29 08:15:07;;;;;;;1.77;0.45;;;9.60;99.90;;;;;;4937954;29;20134;-90
2021/01/29 08:17:53;;;;;;;0.98;0.30;;;9.50;99.90;;;;;;4937515;29;20130;-90
2021/01/29 08:20:59;;;;;;;1.17;0.25;;;9.50;99.90;;;;;;4937284;29;20043;-89
2021/01/29 08:23:34;;;;;;;1.83;0.25;;;9.60;99.90;;;;;;4918078;29;20479;-90
2021/01/29 08:26:27;;;;;;;0.50;0.28;;;9.50;99.90;;;;;;4937218;29;20051;-91
2021/01/29 08:29:47;;;;;;;0.95;0.43;;;9.60;99.90;;;;;;4907239;29;20126;-91
2021/01/29 08:33:13;;;;;;;1.85;0.40;;;9.60;99.90;;;;;;4936981;29;20055;-89
2021/01/29 08:36:11;;;;;;;2.10;0.65;;;9.70;99.90;;;;;;4935944;29;20142;-91
2021/01/29 08:38:46;;;;;;;2.42;0.50;;;9.70;99.90;;;;;;4936624;29;20059;-91
2021/01/29 08:41:21;;;;;;;1.38;0.55;;;9.70;99.90;;;;;;4936843;29;20141;-89
2021/01/29 08:44:07;;;;;;;;;;;9.80;99.90;;;;;;4937305;29;20051;-88
2021/01/29 08:46:49;;;;;;;1.65;0.65;;;9.80;99.90;;;;;;4936869;29;19934;-90
2021/01/29 08:49:45;;;;;;;1.48;0.57;;;9.80;99.90;;;;;;4936537;29;20143;-89
2021/01/29 08:52:33;;;;;;;1.02;0.55;;;9.80;99.90;;;;;;4936682;29;20051;-91
2021/01/29 08:55:20;;;;;;;0.80;0.35;;;9.90;99.90;;;;;;4905184;29;20043;-88
2021/01/29 08:57:56;;;;;;;0.82;0.30;;;9.90;99.90;;;;;;4935049;29;20044;-90
2021/01/29 09:00:27;;;;;;;0.70;0.30;;;9.90;99.90;;;;;;4936501;29;20477;-90
2021/01/29 09:03:07;;;;;;;1.50;0.40;;;9.90;99.90;;;;;;4919512;29;20052;-91
2021/01/29 09:05:35;;;;;;;2.17;0.50;;;10.00;99.90;;;;;;4932253;29;20059;-89
2021/01/29 09:08:05;;;;;;;1.38;0.50;;;10.00;99.90;;;;;;4933046;29;20268;-89
2021/01/29 09:10:59;;;;;;;0.80;0.30;;;10.00;99.90;;;;;;4938300;28;20083;-89
2021/01/29 09:13:26;;;;;;;;;;;10.10;99.90;;;;;;4923621;29;20083;-90
2021/01/29 09:16:06;;;;;;;1.05;0.30;;;10.20;99.90;;;;;;4919558;29;19922;-90
2021/01/29 09:18:40;;;;;;;1.95;0.57;;;10.30;99.90;;;;;;4919525;29;20126;-90
2021/01/29 09:21:21;;;;;;;1.83;0.55;;;10.30;99.90;;;;;;4936048;29;20151;-91
2021/01/29 09:24:02;;;;;;;1.40;0.40;;;10.20;99.90;;;;;;4935782;29;20060;-92
2021/01/29 09:26:35;;;;;;;1.70;0.60;;;10.20;99.90;;;;;;4919329;29;20054;-92
2021/01/29 09:29:15;;;;;;;1.42;0.30;;;10.20;99.90;;;;;;4936031;29;20049;-92
2021/01/29 09:31:45;;;;;;;1.00;0.50;;;10.30;99.90;;;;;;4905707;29;20083;-91
2021/01/29 09:34:18;;;;;;;0.85;0.38;;;10.30;99.90;;;;;;4937687;29;20111;-91
2021/01/29 09:36:51;;;;;;;1.23;0.30;;;10.30;99.60;;;;;;4937794;29;20130;-90
2021/01/29 09:39:26;;;;;;;1.73;0.40;;;10.40;99.50;;;;;;4936534;29;20066;-91
2021/01/29 09:41:56;;;;;;;;;;;10.30;99.40;;;;;;4937084;29;20052;-90
2021/01/29 09:44:27;;;;;;;2.10;0.47;;;10.40;99.20;;;;;;4935893;29;20029;-91
2021/01/29 09:46:58;;;;;;;1.85;0.38;;;10.40;98.80;;;;;;4935858;29;20083;-89
2021/01/29 09:49:27;;;;;;;1.75;0.40;;;10.60;98.20;;;;;;4903615;29;20075;-92
2021/01/29 09:52:07;;;;;;;3.92;0.60;;;10.80;97.70;;;;;;4935786;29;20052;-93
2021/01/29 09:54:54;;;;;;;2.28;0.60;;;10.80;96.40;;;;;;4935797;29;20083;-90
2021/01/29 09:57:24;;;;;;;2.08;0.47;;;10.90;96.50;;;;;;4919418;29;20138;-90
2021/01/29 10:00:03;;;;;;;2.65;0.50;;;10.90;96.50;;;;;;4920708;29;20058;-89
2021/01/29 10:02:40;;;;;;;1.42;0.40;;;11.00;95.70;;;;;;4919444;29;20434;-89
2021/01/29 10:05:29;;;;;;;4.45;0.60;;;10.80;96.10;;;;;;4918955;29;20061;-91
2021/01/29 10:08:12;;;;;;;1.88;0.60;;;10.60;97.10;;;;;;4918348;29;20058;-92
2021/01/29 10:10:59;;;;;;;3.45;0.65;;;10.40;97.30;;;;;;4935320;29;20055;-91
2021/01/29 10:13:56;;;;;;;3.65;0.77;;;10.30;97.70;;;;;;4935514;29;20418;-91
2021/01/29 10:16:47;;;;;;;2.05;0.52;;;10.10;97.50;;;;;;4935442;29;20079;-92
2021/01/29 10:19:31;;;;;;;2.45;0.50;;;10.00;98.00;;;;;;4934773;29;20079;-91
2021/01/29 10:22:41;;;;;;;3.03;0.50;;;9.80;98.50;;;;;;4919927;29;20070;-89
2021/01/29 10:25:26;;;;;;;2.85;0.90;;;9.80;98.90;;;;;;4920412;29;20457;-90
2021/01/29 10:27:56;;;;;;;;;;;9.80;99.10;;;;;;4956007;29;20146;-92
2021/01/29 10:30:35;;;;;;;5.63;0.90;;;9.80;99.30;;;;;;4948403;29;19923;-94
2021/01/29 10:33:09;;;;;;;2.83;0.60;;;9.80;99.10;;;;;;4937320;29;20252;-93
2021/01/29 10:35:43;;;;;;;3.00;0.50;;;10.00;98.90;;;;;;4934434;29;20074;-79
2021/01/29 10:38:18;;;;;;;2.85;0.55;;;10.00;98.90;;;;;;4942367;29;20105;-80
2021/01/29 10:40:57;;;;;;;3.97;1.02;;;10.00;98.80;;;;;;4943792;29;20048;-79
2021/01/29 10:43:39;;;;;;;3.60;0.70;;;9.90;98.40;;;;;;4947750;29;20070;-78
2021/01/29 10:47:00;;;;;;;2.47;0.80;;;10.00;98.10;;;;;;4945389;29;20058;-80
2021/01/29 10:49:35;;;;;;;4.43;0.93;;;10.10;97.80;;;;;;4936324;29;20132;-78
2021/01/29 10:52:11;;;;;;;3.30;0.90;;;10.10;96.90;;;;;;4939980;29;20186;-79
2021/01/29 10:54:41;;;;;;;3.90;0.75;;;10.20;96.10;;;;;;4952148;29;20174;-86
2021/01/29 10:57:17;;;;;;;6.38;1.38;;;10.30;93.60;;;;;;4954924;28;20130;-89
2021/01/29 10:59:52;;;;;;;3.45;0.77;;;10.30;93.30;;;;;;4923130;29;20047;-82
2021/01/29 11:02:31;;;;;;;;;;;10.40;92.70;;;;;;4942868;29;20532;-84
2021/01/29 11:05:06;;;;;;;5.95;0.90;;;10.40;93.30;;;;;;4957110;29;19961;-90
2021/01/29 11:07:36;;;;;;;6.28;0.98;;;10.40;92.50;;;;;;4948514;29;20155;-89
2021/01/29 11:10:08;;;;;;;3.63;0.80;;;10.40;92.50;;;;;;4935741;29;20065;-88
2021/01/29 11:12:39;;;;;;;4.25;0.80;;;10.40;92.50;;;;;;4937206;29;20383;-88
2021/01/29 11:15:20;;;;;;;5.75;1.05;;;10.60;92.10;;;;;;4941678;29;20474;-89
2021/01/29 11:17:56;;;;;;;5.22;0.90;;;10.50;92.30;;;;;;4951251;29;20048;-90
2021/01/29 11:20:30;;;;;;;4.50;0.80;;;10.40;92.10;;;;;;4921414;29;20165;-88
2021/01/29 11:23:05;;;;;;;4.03;0.73;;;10.50;92.20;;;;;;4921338;29;20517;-89
2021/01/29 11:26:00;;;;;;;3.65;0.80;;;10.50;92.80;;;;;;4921319;29;20079;-88
2021/01/29 11:28:39;;;;;;;5.15;0.90;;;10.50;93.70;;;;;;4937730;29;20051;-88
2021/01/29 11:31:16;;;;;;;3.40;0.80;;;10.40;94.50;;;;;;4922204;29;20048;-92
2021/01/29 11:33:47;;;;;;;2.95;0.70;;;10.30;95.80;;;;;;4920964;29;20547;-89
2021/01/29 11:36:29;;;;;;;3.63;0.73;;;10.30;96.50;;;;;;4937917;29;20127;-88
2021/01/29 11:39:08;;;;;;;3.50;0.70;;;10.20;96.90;;;;;;4937738;29;20051;-90
2021/01/29 11:41:48;;;;;;;2.92;0.85;;;10.20;96.70;;;;;;4938089;29;20135;-88
2021/01/29 11:44:24;;;;;;;3.78;0.73;;;10.20;96.90;;;;;;4937628;29;20158;-87
2021/01/29 11:47:02;;;;;;;3.80;0.80;;;10.10;96.70;;;;;;4938260;29;20052;-88
2021/01/29 11:49:34;;;;;;;4.43;0.73;;;10.10;95.60;;;;;;4920619;29;20058;-88
2021/01/29 11:52:12;;;;;;;3.45;1.05;;;9.90;96.00;;;;;;4937529;29;20127;-90
2021/01/29 11:54:49;;;;;;;3.03;1.05;;;9.80;96.00;;;;;;4937380;29;20087;-89
2021/01/29 11:57:23;;;;;;;5.07;0.70;;;10.00;95.50;;;;;;4937484;29;20134;-88
2021/01/29 11:59:59;;;;;;;4.87;1.03;;;9.80;95.40;;;;;;4921127;29;20613;-87
2021/01/29 12:02:33;;;;;;;2.58;0.80;;;9.70;96.10;;;;;;4904965;29;20071;-88
2021/01/29 12:05:27;;;;;;;3.40;0.68;;;9.80;95.20;;;;;;4937378;29;20048;-89
2021/01/29 12:08:04;;;;;;;2.38;0.60;;;9.80;95.60;;;;;;4934125;29;20483;-90
2021/01/29 12:10:40;;;;;;;2.92;0.50;;;9.80;95.70;;;;;;4937098;29;20052;-88
2021/01/29 12:13:14;;;;;;;1.17;0.40;;;9.80;95.10;;;;;;4937232;29;20051;-89
2021/01/29 12:15:46;;;;;;;2.35;0.55;;;9.80;95.10;;;;;;4937203;29;20055;-89
2021/01/29 12:18:16;;;;;;;3.05;0.50;;;9.90;95.70;;;;;;4946686;29;20490;-89
2021/01/29 12:20:44;;;;;;;2.20;0.50;;;10.00;95.20;;;;;;4946908;29;20086;-89
2021/01/29 12:23:32;;;;;;;2.70;0.60;;;10.00;95.60;;;;;;4929989;29;20514;-89
2021/01/29 12:26:11;;;;;;;5.30;1.80;;;10.20;95.40;;;;;;4929654;29;20475;-88
2021/01/29 12:29:10;;;;;;;10.20;3.78;;;10.20;95.50;;;;;;4913369;29;20063;-89
2021/01/29 12:32:17;;;;;;;4.70;1.33;;;10.30;95.10;;;;;;4948601;29;20141;-89
2021/01/29 12:34:50;;;;;;;2.05;0.47;;;10.30;95.40;;;;;;4949256;29;20047;-90
2021/01/29 12:37:24;;;;;;;4.55;0.60;;;10.30;95.20;;;;;;4944275;29;20062;-87
2021/01/29 12:39:56;;;;;;;3.33;0.80;;;10.20;95.00;;;;;;4965958;29;20143;-91
2021/01/29 12:42:28;;;;;;;2.22;0.68;;;10.40;95.20;;;;;;4965747;29;20119;-87
2021/01/29 12:44:58;;;;;;;1.90;0.40;;;10.30;95.40;;;;;;4961562;29;20051;-91
2021/01/29 12:47:42;;;;;;;4.20;1.02;;;10.50;94.90;;;;;;4965985;29;20090;-83
2021/01/29 12:50:56;;;;;;;1.48;0.50;;;10.50;94.50;;;;;;4969708;29;20058;-83
2021/01/29 12:53:36;;;;;;;1.77;0.55;;;10.50;94.70;;;;;;4916954;29;20121;-84
2021/01/29 12:56:23;;;;;;;2.40;0.50;;;10.50;95.00;;;;;;4939735;29;20047;-87
2021/01/29 12:58:53;;;;;;;3.15;0.60;;;10.50;94.90;;;;;;4922840;29;20061;-87
2021/01/29 13:01:44;;;;;;;2.95;0.70;;;10.40;94.80;;;;;;4936272;29;20609;-87
2021/01/29 13:04:24;;;;;;;2.95;0.70;;;10.20;95.70;;;;;;4935990;29;20051;-87
2021/01/29 13:07:04;;;;;;;4.85;0.93;;;10.30;96.10;;;;;;4922543;29;20462;-87
2021/01/29 13:10:07;;;;;;;2.00;0.50;;;10.10;96.40;;;;;;4937314;29;20582;-87
2021/01/29 13:12:52;;;;;;;1.88;0.50;;;10.00;96.80;;;;;;4935618;29;20063;-85
2021/01/29 13:15:40;;;;;;;3.72;0.60;;;10.00;97.30;;;;;;4920229;29;20146;-90
2021/01/29 13:18:14;;;;;;;5.47;0.90;;;10.00;98.30;;;;;;4935510;29;20126;-88
2021/01/29 13:20:46;;;;;;;3.67;0.85;;;9.90;99.00;;;;;;4935163;29;20047;-86
2021/01/29 13:23:25;;;;;;;1.83;0.55;;;9.90;99.10;;;;;;4922122;29;20059;-89
2021/01/29 13:26:01;;;;;;;1.85;0.50;;;9.90;99.40;;;;;;4937475;29;20059;-85
2021/01/29 13:28:30;;;;;;;3.17;0.98;;;9.70;99.40;;;;;;4921497;29;20136;-87
2021/01/29 13:31:14;;;;;;;1.90;0.50;;;9.80;99.90;;;;;;4931540;29;20108;-85
2021/01/29 13:33:51;;;;;;;1.95;0.65;;;9.80;99.90;;;;;;4946067;29;20057;-87
2021/01/29 13:36:24;;;;;;;3.92;0.90;;;9.80;99.90;;;;;;4951151;29;20055;-86
2021/01/29 13:38:53;;;;;;;3.40;0.68;;;9.80;99.90;;;;;;4938653;29;20134;-78
2021/01/29 13:41:23;;;;;;;4.82;0.82;;;9.80;99.90;;;;;;4945800;29;20071;-82
2021/01/29 13:43:51;;;;;;;2.80;0.70;;;9.80;99.90;;;;;;4945598;29;20110;-80
2021/01/29 13:46:31;;;;;;;4.68;0.77;;;9.80;99.90;;;;;;4951821;29;20147;-78
2021/01/29 13:49:29;;;;;;;2.33;0.70;;;9.90;99.90;;;;;;4934520;29;20468;-76
2021/01/29 13:51:57;;;;;;;4.70;0.90;;;10.10;99.90;;;;;;4946123;29;20130;-79
2021/01/29 13:54:34;;;;;;;3.85;0.90;;;10.50;99.90;;;;;;4936311;29;20461;-80
2021/01/29 13:57:10;;;;;;;2.08;0.75;;;10.80;98.20;;;;;;4947599;29;20054;-78
2021/01/29 13:59:41;;;;;;;1.83;0.60;;;11.70;97.10;;;;;;4935956;29;20047;-77
2021/01/29 14:02:30;;;;;;;2.05;0.80;;;12.40;94.30;;;;;;4922479;29;20047;-79
2021/01/29 14:05:08;;;;;;;5.57;2.35;;;13.30;90.10;;;;;;4938587;29;20051;-78
2021/01/29 14:07:34;;;;;;;2.63;0.88;;;13.70;86.20;;;;;;4942831;29;20048;-78
2021/01/29 14:10:07;;;;;;;2.05;0.80;;;13.30;85.10;;;;;;4946689;29;20194;-76